Terminal Aerodrome Forecast
Issued by NWS Sterling, VA

Current Version | Previous Version | Graphics & Text | Print | Product List | Glossary On
Versions: 1 2 3 4 5 6 7 8 9 10 11 12 13
000
FTUS41 KLWX 262300
TAFMRB
TAF
KMRB 262336Z 2700/2724 00000KT P6SM SCT012 OVC070
     FM270600 VRB03KT 3SM BR OVC035
     FM271300 VRB03KT P6SM BKN035
     FM271500 33008KT P6SM BKN035=

USA.gov is the U.S. government's official web portal to all federal, state and local government web resources and services.